sensor_id;sensor_type;location;lat;lon;timestamp;temperature;humidity
12700;DHT22;6414;49.570;6.060;2024-03-02T00:01:44;5.30;99.90
12700;DHT22;6414;49.570;6.060;2024-03-02T00:04:30;5.30;99.90
12700;DHT22;6414;49.570;6.060;2024-03-02T00:07:16;5.20;99.90
12700;DHT22;6414;49.570;6.060;2024-03-02T00:10:04;5.20;99.90
12700;DHT22;6414;49.570;6.060;2024-03-02T00:12:47;5.20;99.90
12700;DHT22;6414;49.570;6.060;2024-03-02T00:15:51;5.20;99.90
12700;DHT22;6414;49.570;6.060;2024-03-02T00:18:35;5.20;99.90
12700;DHT22;6414;49.570;6.060;2024-03-02T00:21:20;5.20;99.90
12700;DHT22;6414;49.570;6.060;2024-03-02T00:24:18;5.20;99.90
12700;DHT22;6414;49.570;6.060;2024-03-02T00:27:03;5.20;99.90
12700;DHT22;6414;49.570;6.060;2024-03-02T00:29:49;5.30;99.90
12700;DHT22;6414;49.570;6.060;2024-03-02T00:32:35;5.20;99.90
12700;DHT22;6414;49.570;6.060;2024-03-02T00:35:21;5.20;99.90
12700;DHT22;6414;49.570;6.060;2024-03-02T00:38:06;5.30;99.90
12700;DHT22;6414;49.570;6.060;2024-03-02T00:40:52;5.30;99.90
12700;DHT22;6414;49.570;6.060;2024-03-02T00:43:48;5.30;99.90
12700;DHT22;6414;49.570;6.060;2024-03-02T00:46:36;5.30;99.90
12700;DHT22;6414;49.570;6.060;2024-03-02T00:49:22;5.40;99.90
12700;DHT22;6414;49.570;6.060;2024-03-02T00:52:07;5.40;99.90
12700;DHT22;6414;49.570;6.060;2024-03-02T00:54:54;5.50;99.90
12700;DHT22;6414;49.570;6.060;2024-03-02T00:57:38;5.60;99.90
12700;DHT22;6414;49.570;6.060;2024-03-02T01:00:24;5.70;99.90
12700;DHT22;6414;49.570;6.060;2024-03-02T01:03:11;5.70;99.90
12700;DHT22;6414;49.570;6.060;2024-03-02T01:05:56;5.70;99.90
12700;DHT22;6414;49.570;6.060;2024-03-02T01:08:42;5.70;99.90
12700;DHT22;6414;49.570;6.060;2024-03-02T01:11:27;5.70;99.90
12700;DHT22;6414;49.570;6.060;2024-03-02T01:14:13;5.80;99.90
12700;DHT22;6414;49.570;6.060;2024-03-02T01:16:59;5.80;99.90
12700;DHT22;6414;49.570;6.060;2024-03-02T01:19:45;5.80;99.90
12700;DHT22;6414;49.570;6.060;2024-03-02T01:22:30;5.80;99.90
12700;DHT22;6414;49.570;6.060;2024-03-02T01:25:17;5.80;99.90
12700;DHT22;6414;49.570;6.060;2024-03-02T01:28:02;5.80;99.90
12700;DHT22;6414;49.570;6.060;2024-03-02T01:30:48;5.80;99.90
12700;DHT22;6414;49.570;6.060;2024-03-02T01:33:34;5.80;99.90
12700;DHT22;6414;49.570;6.060;2024-03-02T01:36:20;5.80;99.90
12700;DHT22;6414;49.570;6.060;2024-03-02T01:39:06;5.80;99.90
12700;DHT22;6414;49.570;6.060;2024-03-02T01:41:52;5.80;99.90
12700;DHT22;6414;49.570;6.060;2024-03-02T01:44:39;5.80;99.90
12700;DHT22;6414;49.570;6.060;2024-03-02T01:47:24;5.90;99.90
12700;DHT22;6414;49.570;6.060;2024-03-02T01:50:11;5.90;99.90
12700;DHT22;6414;49.570;6.060;2024-03-02T01:52:55;6.10;99.90
12700;DHT22;6414;49.570;6.060;2024-03-02T01:55:41;6.20;99.90
12700;DHT22;6414;49.570;6.060;2024-03-02T01:58:27;6.40;99.90
12700;DHT22;6414;49.570;6.060;2024-03-02T02:01:12;6.40;99.90
12700;DHT22;6414;49.570;6.060;2024-03-02T02:03:58;6.50;99.90
12700;DHT22;6414;49.570;6.060;2024-03-02T02:06:44;6.50;99.90
12700;DHT22;6414;49.570;6.060;2024-03-02T02:09:30;6.60;99.90
12700;DHT22;6414;49.570;6.060;2024-03-02T02:12:15;6.60;99.90
12700;DHT22;6414;49.570;6.060;2024-03-02T02:15:01;6.60;99.90
12700;DHT22;6414;49.570;6.060;2024-03-02T02:17:47;6.60;99.90
12700;DHT22;6414;49.570;6.060;2024-03-02T02:20:33;6.50;99.90
12700;DHT22;6414;49.570;6.060;2024-03-02T02:23:19;6.50;99.90
12700;DHT22;6414;49.570;6.060;2024-03-02T02:26:05;6.60;99.90
12700;DHT22;6414;49.570;6.060;2024-03-02T02:28:50;6.40;99.90
12700;DHT22;6414;49.570;6.060;2024-03-02T02:31:37;6.40;99.90
12700;DHT22;6414;49.570;6.060;2024-03-02T02:34:22;6.30;99.90
12700;DHT22;6414;49.570;6.060;2024-03-02T02:37:08;6.30;99.90
12700;DHT22;6414;49.570;6.060;2024-03-02T02:39:54;6.10;99.90
12700;DHT22;6414;49.570;6.060;2024-03-02T02:42:40;6.00;99.90
12700;DHT22;6414;49.570;6.060;2024-03-02T02:45:26;5.90;99.90
12700;DHT22;6414;49.570;6.060;2024-03-02T02:48:12;5.90;99.90
12700;DHT22;6414;49.570;6.060;2024-03-02T02:50:58;5.80;99.90
12700;DHT22;6414;49.570;6.060;2024-03-02T02:53:44;5.80;99.90
12700;DHT22;6414;49.570;6.060;2024-03-02T02:56:29;5.80;99.90
12700;DHT22;6414;49.570;6.060;2024-03-02T02:59:15;5.90;99.90
12700;DHT22;6414;49.570;6.060;2024-03-02T03:02:00;5.80;99.90
12700;DHT22;6414;49.570;6.060;2024-03-02T03:04:46;5.70;99.90
12700;DHT22;6414;49.570;6.060;2024-03-02T03:07:32;5.80;99.90
12700;DHT22;6414;49.570;6.060;2024-03-02T03:10:17;5.80;99.90
12700;DHT22;6414;49.570;6.060;2024-03-02T03:13:03;5.70;99.90
12700;DHT22;6414;49.570;6.060;2024-03-02T03:15:49;5.70;99.90
12700;DHT22;6414;49.570;6.060;2024-03-02T03:18:35;5.70;99.90
12700;DHT22;6414;49.570;6.060;2024-03-02T03:21:21;5.70;99.90
12700;DHT22;6414;49.570;6.060;2024-03-02T03:24:06;5.70;99.90
12700;DHT22;6414;49.570;6.060;2024-03-02T03:26:52;5.80;99.90
12700;DHT22;6414;49.570;6.060;2024-03-02T03:29:38;5.70;99.90
12700;DHT22;6414;49.570;6.060;2024-03-02T03:32:23;5.70;99.90
12700;DHT22;6414;49.570;6.060;2024-03-02T03:35:09;5.70;99.90
12700;DHT22;6414;49.570;6.060;2024-03-02T03:37:54;5.70;99.90
12700;DHT22;6414;49.570;6.060;2024-03-02T03:40:41;5.70;99.90
12700;DHT22;6414;49.570;6.060;2024-03-02T03:43:26;5.70;99.90
12700;DHT22;6414;49.570;6.060;2024-03-02T03:46:12;5.70;99.90
12700;DHT22;6414;49.570;6.060;2024-03-02T03:48:58;5.70;99.90
12700;DHT22;6414;49.570;6.060;2024-03-02T03:51:43;5.70;99.90
12700;DHT22;6414;49.570;6.060;2024-03-02T03:54:29;5.60;99.90
12700;DHT22;6414;49.570;6.060;2024-03-02T03:57:15;5.60;99.90
12700;DHT22;6414;49.570;6.060;2024-03-02T04:00:01;5.50;99.90
12700;DHT22;6414;49.570;6.060;2024-03-02T04:02:47;5.50;99.90
12700;DHT22;6414;49.570;6.060;2024-03-02T04:05:33;5.50;99.90
12700;DHT22;6414;49.570;6.060;2024-03-02T04:08:18;5.60;99.90
12700;DHT22;6414;49.570;6.060;2024-03-02T04:11:04;5.60;99.90
12700;DHT22;6414;49.570;6.060;2024-03-02T04:13:50;5.60;99.90
12700;DHT22;6414;49.570;6.060;2024-03-02T04:16:36;5.60;99.90
12700;DHT22;6414;49.570;6.060;2024-03-02T04:19:21;5.60;99.90
12700;DHT22;6414;49.570;6.060;2024-03-02T04:22:07;5.60;99.90
12700;DHT22;6414;49.570;6.060;2024-03-02T04:24:53;5.60;99.90
12700;DHT22;6414;49.570;6.060;2024-03-02T04:27:38;5.60;99.90
12700;DHT22;6414;49.570;6.060;2024-03-02T04:30:24;5.60;99.90
12700;DHT22;6414;49.570;6.060;2024-03-02T04:33:10;5.50;99.90
12700;DHT22;6414;49.570;6.060;2024-03-02T04:35:55;5.50;99.90
12700;DHT22;6414;49.570;6.060;2024-03-02T04:38:41;5.50;99.90
12700;DHT22;6414;49.570;6.060;2024-03-02T04:41:27;5.50;99.90
12700;DHT22;6414;49.570;6.060;2024-03-02T04:44:13;5.60;99.90
12700;DHT22;6414;49.570;6.060;2024-03-02T04:46:58;5.50;99.90
12700;DHT22;6414;49.570;6.060;2024-03-02T04:49:44;5.50;99.90
12700;DHT22;6414;49.570;6.060;2024-03-02T04:52:30;5.50;99.90
12700;DHT22;6414;49.570;6.060;2024-03-02T04:55:17;5.50;99.90
12700;DHT22;6414;49.570;6.060;2024-03-02T04:58:02;5.50;99.90
12700;DHT22;6414;49.570;6.060;2024-03-02T05:00:48;5.50;99.90
12700;DHT22;6414;49.570;6.060;2024-03-02T05:03:35;5.50;99.90
12700;DHT22;6414;49.570;6.060;2024-03-02T05:06:21;5.50;99.90
12700;DHT22;6414;49.570;6.060;2024-03-02T05:09:07;5.60;99.90
12700;DHT22;6414;49.570;6.060;2024-03-02T05:11:52;5.60;99.90
12700;DHT22;6414;49.570;6.060;2024-03-02T05:14:56;5.60;99.90
12700;DHT22;6414;49.570;6.060;2024-03-02T05:17:42;5.60;99.90
12700;DHT22;6414;49.570;6.060;2024-03-02T05:20:27;5.50;99.90
12700;DHT22;6414;49.570;6.060;2024-03-02T05:23:13;5.60;99.90
12700;DHT22;6414;49.570;6.060;2024-03-02T05:25:59;5.50;99.90
12700;DHT22;6414;49.570;6.060;2024-03-02T05:28:45;5.50;99.90
12700;DHT22;6414;49.570;6.060;2024-03-02T05:31:31;5.60;99.90
12700;DHT22;6414;49.570;6.060;2024-03-02T05:34:18;5.50;99.90
12700;DHT22;6414;49.570;6.060;2024-03-02T05:37:03;5.60;99.90
12700;DHT22;6414;49.570;6.060;2024-03-02T05:39:49;5.60;99.90
12700;DHT22;6414;49.570;6.060;2024-03-02T05:42:35;5.60;99.90
12700;DHT22;6414;49.570;6.060;2024-03-02T05:45:20;5.60;99.90
12700;DHT22;6414;49.570;6.060;2024-03-02T05:48:07;5.50;99.90
12700;DHT22;6414;49.570;6.060;2024-03-02T05:50:51;5.50;99.90
12700;DHT22;6414;49.570;6.060;2024-03-02T05:53:37;5.50;99.90
12700;DHT22;6414;49.570;6.060;2024-03-02T05:56:23;5.50;99.90
12700;DHT22;6414;49.570;6.060;2024-03-02T05:59:09;5.50;99.90
12700;DHT22;6414;49.570;6.060;2024-03-02T06:02:00;5.50;99.90
12700;DHT22;6414;49.570;6.060;2024-03-02T06:04:45;5.50;99.90
12700;DHT22;6414;49.570;6.060;2024-03-02T06:07:31;5.50;99.90
12700;DHT22;6414;49.570;6.060;2024-03-02T06:10:17;5.50;99.90
12700;DHT22;6414;49.570;6.060;2024-03-02T06:13:03;5.50;99.90
12700;DHT22;6414;49.570;6.060;2024-03-02T06:15:49;5.50;99.90
12700;DHT22;6414;49.570;6.060;2024-03-02T06:18:35;5.50;99.90
12700;DHT22;6414;49.570;6.060;2024-03-02T06:21:21;5.50;99.90
12700;DHT22;6414;49.570;6.060;2024-03-02T06:24:06;5.50;99.90
12700;DHT22;6414;49.570;6.060;2024-03-02T06:26:52;5.50;99.90
12700;DHT22;6414;49.570;6.060;2024-03-02T06:29:38;5.50;99.90
12700;DHT22;6414;49.570;6.060;2024-03-02T06:32:23;5.50;99.90
12700;DHT22;6414;49.570;6.060;2024-03-02T06:35:09;5.50;99.90
12700;DHT22;6414;49.570;6.060;2024-03-02T06:37:55;5.50;99.90
12700;DHT22;6414;49.570;6.060;2024-03-02T06:40:40;5.50;99.90
12700;DHT22;6414;49.570;6.060;2024-03-02T06:43:26;5.50;99.90
12700;DHT22;6414;49.570;6.060;2024-03-02T06:46:12;5.60;99.90
12700;DHT22;6414;49.570;6.060;2024-03-02T06:48:58;5.60;99.90
12700;DHT22;6414;49.570;6.060;2024-03-02T06:51:44;5.70;99.90
12700;DHT22;6414;49.570;6.060;2024-03-02T06:54:30;5.70;99.90
12700;DHT22;6414;49.570;6.060;2024-03-02T06:57:16;5.60;99.90
12700;DHT22;6414;49.570;6.060;2024-03-02T07:00:02;5.70;99.90
12700;DHT22;6414;49.570;6.060;2024-03-02T07:02:48;5.60;99.90
12700;DHT22;6414;49.570;6.060;2024-03-02T07:05:33;5.70;99.90
12700;DHT22;6414;49.570;6.060;2024-03-02T07:08:19;5.70;99.90
12700;DHT22;6414;49.570;6.060;2024-03-02T07:11:07;5.80;99.90
12700;DHT22;6414;49.570;6.060;2024-03-02T07:13:54;5.80;99.90
12700;DHT22;6414;49.570;6.060;2024-03-02T07:16:40;5.80;99.90
12700;DHT22;6414;49.570;6.060;2024-03-02T07:19:26;5.80;99.90
12700;DHT22;6414;49.570;6.060;2024-03-02T07:22:13;5.80;99.90
12700;DHT22;6414;49.570;6.060;2024-03-02T07:24:58;5.80;99.90
12700;DHT22;6414;49.570;6.060;2024-03-02T07:27:44;5.80;99.90
12700;DHT22;6414;49.570;6.060;2024-03-02T07:30:30;5.80;99.90
12700;DHT22;6414;49.570;6.060;2024-03-02T07:33:16;5.80;99.90
12700;DHT22;6414;49.570;6.060;2024-03-02T07:36:02;5.80;99.90
12700;DHT22;6414;49.570;6.060;2024-03-02T07:38:48;5.80;99.90
12700;DHT22;6414;49.570;6.060;2024-03-02T07:41:35;5.80;99.90
12700;DHT22;6414;49.570;6.060;2024-03-02T07:44:21;5.90;99.90
12700;DHT22;6414;49.570;6.060;2024-03-02T07:47:07;5.90;99.90
12700;DHT22;6414;49.570;6.060;2024-03-02T07:49:53;5.90;99.90
12700;DHT22;6414;49.570;6.060;2024-03-02T07:52:39;6.00;99.90
12700;DHT22;6414;49.570;6.060;2024-03-02T07:55:25;6.00;99.90
12700;DHT22;6414;49.570;6.060;2024-03-02T07:58:11;6.20;99.90
12700;DHT22;6414;49.570;6.060;2024-03-02T08:00:56;6.30;99.90
12700;DHT22;6414;49.570;6.060;2024-03-02T08:03:42;6.40;99.90
12700;DHT22;6414;49.570;6.060;2024-03-02T08:06:29;6.60;99.90
12700;DHT22;6414;49.570;6.060;2024-03-02T08:09:15;6.60;99.90
12700;DHT22;6414;49.570;6.060;2024-03-02T08:12:01;6.80;99.90
12700;DHT22;6414;49.570;6.060;2024-03-02T08:14:47;6.80;99.90
12700;DHT22;6414;49.570;6.060;2024-03-02T08:17:33;6.70;99.90
12700;DHT22;6414;49.570;6.060;2024-03-02T08:20:19;6.70;99.90
12700;DHT22;6414;49.570;6.060;2024-03-02T08:23:06;7.00;99.90
12700;DHT22;6414;49.570;6.060;2024-03-02T08:25:52;7.10;99.90
12700;DHT22;6414;49.570;6.060;2024-03-02T08:28:39;7.20;99.90
12700;DHT22;6414;49.570;6.060;2024-03-02T08:31:27;7.60;99.90
12700;DHT22;6414;49.570;6.060;2024-03-02T08:34:13;7.60;99.90
12700;DHT22;6414;49.570;6.060;2024-03-02T08:36:59;7.40;99.90
12700;DHT22;6414;49.570;6.060;2024-03-02T08:39:45;7.30;99.90
12700;DHT22;6414;49.570;6.060;2024-03-02T08:42:31;7.30;99.90
12700;DHT22;6414;49.570;6.060;2024-03-02T08:45:18;7.00;99.90
12700;DHT22;6414;49.570;6.060;2024-03-02T08:48:04;6.90;99.90
12700;DHT22;6414;49.570;6.060;2024-03-02T08:50:50;7.00;99.90
12700;DHT22;6414;49.570;6.060;2024-03-02T08:53:36;6.90;99.90
12700;DHT22;6414;49.570;6.060;2024-03-02T08:56:22;7.00;99.90
12700;DHT22;6414;49.570;6.060;2024-03-02T08:59:08;7.00;99.90
12700;DHT22;6414;49.570;6.060;2024-03-02T09:01:55;7.00;99.90
12700;DHT22;6414;49.570;6.060;2024-03-02T09:04:41;7.00;99.90
12700;DHT22;6414;49.570;6.060;2024-03-02T09:07:27;7.10;99.90
12700;DHT22;6414;49.570;6.060;2024-03-02T09:10:13;7.10;99.90
12700;DHT22;6414;49.570;6.060;2024-03-02T09:12:59;7.20;99.90
12700;DHT22;6414;49.570;6.060;2024-03-02T09:15:45;7.00;99.90
12700;DHT22;6414;49.570;6.060;2024-03-02T09:18:31;7.00;99.90
12700;DHT22;6414;49.570;6.060;2024-03-02T09:21:17;6.90;99.90
12700;DHT22;6414;49.570;6.060;2024-03-02T09:24:03;7.10;99.90
12700;DHT22;6414;49.570;6.060;2024-03-02T09:26:49;7.60;99.90
12700;DHT22;6414;49.570;6.060;2024-03-02T09:29:35;7.60;99.90
12700;DHT22;6414;49.570;6.060;2024-03-02T09:32:22;7.50;99.90
12700;DHT22;6414;49.570;6.060;2024-03-02T09:35:08;7.50;99.90
12700;DHT22;6414;49.570;6.060;2024-03-02T09:37:57;7.50;99.90
12700;DHT22;6414;49.570;6.060;2024-03-02T09:40:43;7.70;99.90
12700;DHT22;6414;49.570;6.060;2024-03-02T09:43:29;7.80;99.90
12700;DHT22;6414;49.570;6.060;2024-03-02T09:46:15;8.00;99.90
12700;DHT22;6414;49.570;6.060;2024-03-02T09:49:01;7.90;99.90
12700;DHT22;6414;49.570;6.060;2024-03-02T09:51:47;8.00;99.90
12700;DHT22;6414;49.570;6.060;2024-03-02T09:54:32;8.00;99.90
12700;DHT22;6414;49.570;6.060;2024-03-02T09:57:18;8.00;99.90
12700;DHT22;6414;49.570;6.060;2024-03-02T10:00:04;7.80;99.90
12700;DHT22;6414;49.570;6.060;2024-03-02T10:02:51;8.80;99.90
12700;DHT22;6414;49.570;6.060;2024-03-02T10:05:37;8.70;99.90
12700;DHT22;6414;49.570;6.060;2024-03-02T10:08:23;9.80;99.90
12700;DHT22;6414;49.570;6.060;2024-03-02T10:11:09;9.00;99.90
12700;DHT22;6414;49.570;6.060;2024-03-02T10:14:11;8.50;99.90
12700;DHT22;6414;49.570;6.060;2024-03-02T10:17:07;8.40;99.90
12700;DHT22;6414;49.570;6.060;2024-03-02T10:19:43;8.50;99.90
12700;DHT22;6414;49.570;6.060;2024-03-02T10:22:28;8.50;99.90
12700;DHT22;6414;49.570;6.060;2024-03-02T10:25:30;8.40;99.90
12700;DHT22;6414;49.570;6.060;2024-03-02T10:28:16;8.50;99.90
12700;DHT22;6414;49.570;6.060;2024-03-02T10:31:02;8.40;99.90
12700;DHT22;6414;49.570;6.060;2024-03-02T10:33:48;8.60;99.90
12700;DHT22;6414;49.570;6.060;2024-03-02T10:36:34;8.40;99.90
12700;DHT22;6414;49.570;6.060;2024-03-02T10:39:20;8.50;99.90
12700;DHT22;6414;49.570;6.060;2024-03-02T10:42:06;8.60;99.90
12700;DHT22;6414;49.570;6.060;2024-03-02T10:44:52;8.60;99.90
12700;DHT22;6414;49.570;6.060;2024-03-02T10:47:37;8.40;99.90
12700;DHT22;6414;49.570;6.060;2024-03-02T10:50:24;8.30;99.90
12700;DHT22;6414;49.570;6.060;2024-03-02T10:53:09;8.20;99.90
12700;DHT22;6414;49.570;6.060;2024-03-02T10:55:57;8.20;99.90
12700;DHT22;6414;49.570;6.060;2024-03-02T10:58:40;8.20;99.90
12700;DHT22;6414;49.570;6.060;2024-03-02T11:01:26;8.20;99.90
12700;DHT22;6414;49.570;6.060;2024-03-02T11:04:12;8.20;99.90
12700;DHT22;6414;49.570;6.060;2024-03-02T11:07:07;8.20;99.90
12700;DHT22;6414;49.570;6.060;2024-03-02T11:10:00;8.10;99.90
12700;DHT22;6414;49.570;6.060;2024-03-02T11:12:56;8.10;99.90
12700;DHT22;6414;49.570;6.060;2024-03-02T11:15:43;8.10;99.90
12700;DHT22;6414;49.570;6.060;2024-03-02T11:18:28;8.30;99.90
12700;DHT22;6414;49.570;6.060;2024-03-02T11:21:13;8.40;99.90
12700;DHT22;6414;49.570;6.060;2024-03-02T11:23:59;8.60;99.90
12700;DHT22;6414;49.570;6.060;2024-03-02T11:26:45;8.70;99.90
12700;DHT22;6414;49.570;6.060;2024-03-02T11:32:22;9.00;99.90
12700;DHT22;6414;49.570;6.060;2024-03-02T11:35:11;9.10;99.90
12700;DHT22;6414;49.570;6.060;2024-03-02T11:37:57;9.10;99.90
12700;DHT22;6414;49.570;6.060;2024-03-02T11:40:43;9.20;99.90
12700;DHT22;6414;49.570;6.060;2024-03-02T11:43:29;9.40;99.90
12700;DHT22;6414;49.570;6.060;2024-03-02T11:46:14;9.70;99.90
12700;DHT22;6414;49.570;6.060;2024-03-02T11:48:59;9.60;99.90
12700;DHT22;6414;49.570;6.060;2024-03-02T11:52:00;9.90;99.90
12700;DHT22;6414;49.570;6.060;2024-03-02T11:54:38;9.80;99.90
12700;DHT22;6414;49.570;6.060;2024-03-02T11:57:24;9.70;99.90
12700;DHT22;6414;49.570;6.060;2024-03-02T12:00:16;9.90;99.90
12700;DHT22;6414;49.570;6.060;2024-03-02T12:03:05;9.80;99.90
12700;DHT22;6414;49.570;6.060;2024-03-02T12:05:51;9.50;99.90
12700;DHT22;6414;49.570;6.060;2024-03-02T12:08:36;9.50;99.90
12700;DHT22;6414;49.570;6.060;2024-03-02T12:11:22;9.60;99.90
12700;DHT22;6414;49.570;6.060;2024-03-02T12:14:11;9.60;99.90
12700;DHT22;6414;49.570;6.060;2024-03-02T12:16:57;9.70;99.90
12700;DHT22;6414;49.570;6.060;2024-03-02T12:19:44;9.90;99.90
12700;DHT22;6414;49.570;6.060;2024-03-02T12:22:31;9.80;99.90
12700;DHT22;6414;49.570;6.060;2024-03-02T12:25:17;10.00;99.90
12700;DHT22;6414;49.570;6.060;2024-03-02T12:28:03;10.10;99.90
12700;DHT22;6414;49.570;6.060;2024-03-02T12:30:50;10.10;99.90
12700;DHT22;6414;49.570;6.060;2024-03-02T12:33:36;10.30;99.90
12700;DHT22;6414;49.570;6.060;2024-03-02T12:36:22;10.30;99.90
12700;DHT22;6414;49.570;6.060;2024-03-02T12:39:08;10.40;99.90
12700;DHT22;6414;49.570;6.060;2024-03-02T12:41:57;10.50;99.90
12700;DHT22;6414;49.570;6.060;2024-03-02T12:44:43;10.60;99.90
12700;DHT22;6414;49.570;6.060;2024-03-02T12:47:29;10.60;99.90
12700;DHT22;6414;49.570;6.060;2024-03-02T12:50:15;10.60;99.90
12700;DHT22;6414;49.570;6.060;2024-03-02T12:53:01;10.70;99.90
12700;DHT22;6414;49.570;6.060;2024-03-02T12:55:47;10.70;99.90
12700;DHT22;6414;49.570;6.060;2024-03-02T12:58:38;10.70;99.90
12700;DHT22;6414;49.570;6.060;2024-03-02T13:01:19;10.90;99.90
12700;DHT22;6414;49.570;6.060;2024-03-02T13:04:06;10.90;99.90
12700;DHT22;6414;49.570;6.060;2024-03-02T13:06:52;10.80;99.90
12700;DHT22;6414;49.570;6.060;2024-03-02T13:09:38;10.90;99.90
12700;DHT22;6414;49.570;6.060;2024-03-02T13:12:25;11.10;14.20
12700;DHT22;6414;49.570;6.060;2024-03-02T13:15:11;11.00;10.20
12700;DHT22;6414;49.570;6.060;2024-03-02T13:18:00;11.10;63.20
12700;DHT22;6414;49.570;6.060;2024-03-02T13:20:46;11.10;57.00
12700;DHT22;6414;49.570;6.060;2024-03-02T13:23:33;11.20;99.90
12700;DHT22;6414;49.570;6.060;2024-03-02T13:26:18;11.30;64.00
12700;DHT22;6414;49.570;6.060;2024-03-02T13:29:05;11.30;64.10
12700;DHT22;6414;49.570;6.060;2024-03-02T13:31:51;11.30;91.20
12700;DHT22;6414;49.570;6.060;2024-03-02T13:34:37;11.40;99.90
12700;DHT22;6414;49.570;6.060;2024-03-02T13:37:23;11.40;99.90
12700;DHT22;6414;49.570;6.060;2024-03-02T13:40:09;11.30;93.60
12700;DHT22;6414;49.570;6.060;2024-03-02T13:42:55;11.30;92.10
12700;DHT22;6414;49.570;6.060;2024-03-02T13:45:41;11.30;79.30
12700;DHT22;6414;49.570;6.060;2024-03-02T13:48:27;11.30;21.60
12700;DHT22;6414;49.570;6.060;2024-03-02T13:51:13;11.40;99.90
12700;DHT22;6414;49.570;6.060;2024-03-02T13:53:59;11.50;16.40
12700;DHT22;6414;49.570;6.060;2024-03-02T13:56:46;11.60;95.60
12700;DHT22;6414;49.570;6.060;2024-03-02T13:59:35;11.50;1.00
12700;DHT22;6414;49.570;6.060;2024-03-02T14:02:21;11.50;1.00
12700;DHT22;6414;49.570;6.060;2024-03-02T14:05:07;11.40;36.40
12700;DHT22;6414;49.570;6.060;2024-03-02T14:07:53;11.40;1.60
12700;DHT22;6414;49.570;6.060;2024-03-02T14:10:39;11.30;91.10
12700;DHT22;6414;49.570;6.060;2024-03-02T14:13:25;11.20;99.90
12700;DHT22;6414;49.570;6.060;2024-03-02T14:16:12;11.20;99.90
12700;DHT22;6414;49.570;6.060;2024-03-02T14:18:58;11.20;99.90
12700;DHT22;6414;49.570;6.060;2024-03-02T14:21:44;11.10;99.90
12700;DHT22;6414;49.570;6.060;2024-03-02T14:24:30;11.10;99.90
12700;DHT22;6414;49.570;6.060;2024-03-02T14:27:16;11.00;99.90
12700;DHT22;6414;49.570;6.060;2024-03-02T14:30:02;11.00;99.90
12700;DHT22;6414;49.570;6.060;2024-03-02T14:32:48;11.00;99.90
12700;DHT22;6414;49.570;6.060;2024-03-02T14:35:34;11.00;99.90
12700;DHT22;6414;49.570;6.060;2024-03-02T14:38:20;11.00;99.90
12700;DHT22;6414;49.570;6.060;2024-03-02T14:41:08;11.20;99.90
12700;DHT22;6414;49.570;6.060;2024-03-02T14:43:53;11.20;99.90
12700;DHT22;6414;49.570;6.060;2024-03-02T14:46:39;11.30;99.90
12700;DHT22;6414;49.570;6.060;2024-03-02T14:49:25;11.20;99.90
12700;DHT22;6414;49.570;6.060;2024-03-02T14:52:11;11.10;99.90
12700;DHT22;6414;49.570;6.060;2024-03-02T14:54:58;11.20;99.90
12700;DHT22;6414;49.570;6.060;2024-03-02T14:57:44;11.30;99.90
12700;DHT22;6414;49.570;6.060;2024-03-02T15:00:30;11.20;99.90
12700;DHT22;6414;49.570;6.060;2024-03-02T15:03:15;11.10;99.90
12700;DHT22;6414;49.570;6.060;2024-03-02T15:06:01;11.00;99.90
12700;DHT22;6414;49.570;6.060;2024-03-02T15:08:47;11.00;99.90
12700;DHT22;6414;49.570;6.060;2024-03-02T15:11:34;10.90;99.90
12700;DHT22;6414;49.570;6.060;2024-03-02T15:14:20;10.90;99.90
12700;DHT22;6414;49.570;6.060;2024-03-02T15:17:06;10.90;99.90
12700;DHT22;6414;49.570;6.060;2024-03-02T15:19:52;10.90;99.90
12700;DHT22;6414;49.570;6.060;2024-03-02T15:22:38;11.00;99.90
12700;DHT22;6414;49.570;6.060;2024-03-02T15:25:24;11.00;99.90
12700;DHT22;6414;49.570;6.060;2024-03-02T15:28:11;11.10;99.90
12700;DHT22;6414;49.570;6.060;2024-03-02T15:30:56;11.10;99.90
12700;DHT22;6414;49.570;6.060;2024-03-02T15:33:42;11.00;99.90
12700;DHT22;6414;49.570;6.060;2024-03-02T15:36:28;11.10;99.90
12700;DHT22;6414;49.570;6.060;2024-03-02T15:39:14;11.00;99.90
12700;DHT22;6414;49.570;6.060;2024-03-02T15:42:01;11.00;99.90
12700;DHT22;6414;49.570;6.060;2024-03-02T15:44:46;10.90;99.90
12700;DHT22;6414;49.570;6.060;2024-03-02T15:47:32;10.90;99.90
12700;DHT22;6414;49.570;6.060;2024-03-02T15:50:18;10.90;99.90
12700;DHT22;6414;49.570;6.060;2024-03-02T15:53:04;10.70;99.90
12700;DHT22;6414;49.570;6.060;2024-03-02T15:55:50;10.70;99.90
12700;DHT22;6414;49.570;6.060;2024-03-02T15:58:37;10.70;99.90
12700;DHT22;6414;49.570;6.060;2024-03-02T16:01:22;10.60;99.90
12700;DHT22;6414;49.570;6.060;2024-03-02T16:04:09;10.60;99.90
12700;DHT22;6414;49.570;6.060;2024-03-02T16:06:55;10.40;99.90
12700;DHT22;6414;49.570;6.060;2024-03-02T16:09:41;10.30;99.90
12700;DHT22;6414;49.570;6.060;2024-03-02T16:12:28;10.30;99.90
12700;DHT22;6414;49.570;6.060;2024-03-02T16:15:13;10.30;99.90
12700;DHT22;6414;49.570;6.060;2024-03-02T16:17:59;10.20;99.90
12700;DHT22;6414;49.570;6.060;2024-03-02T16:20:46;10.20;99.90
12700;DHT22;6414;49.570;6.060;2024-03-02T16:23:32;10.10;99.90
12700;DHT22;6414;49.570;6.060;2024-03-02T16:26:18;10.00;99.90
12700;DHT22;6414;49.570;6.060;2024-03-02T16:29:04;10.00;99.90
12700;DHT22;6414;49.570;6.060;2024-03-02T16:31:50;9.90;99.90
12700;DHT22;6414;49.570;6.060;2024-03-02T16:34:37;9.90;99.90
12700;DHT22;6414;49.570;6.060;2024-03-02T16:37:23;9.80;99.90
12700;DHT22;6414;49.570;6.060;2024-03-02T16:40:09;9.80;99.90
12700;DHT22;6414;49.570;6.060;2024-03-02T16:42:54;9.70;99.90
12700;DHT22;6414;49.570;6.060;2024-03-02T16:45:40;9.60;99.90
12700;DHT22;6414;49.570;6.060;2024-03-02T16:48:26;9.50;99.90
12700;DHT22;6414;49.570;6.060;2024-03-02T16:51:12;9.40;99.90
12700;DHT22;6414;49.570;6.060;2024-03-02T16:53:58;9.30;99.90
12700;DHT22;6414;49.570;6.060;2024-03-02T16:56:44;9.30;99.90
12700;DHT22;6414;49.570;6.060;2024-03-02T16:59:29;9.20;99.90
12700;DHT22;6414;49.570;6.060;2024-03-02T17:02:16;9.10;99.90
12700;DHT22;6414;49.570;6.060;2024-03-02T17:05:02;9.10;99.90
12700;DHT22;6414;49.570;6.060;2024-03-02T17:07:49;9.00;99.90
12700;DHT22;6414;49.570;6.060;2024-03-02T17:10:35;8.90;99.90
12700;DHT22;6414;49.570;6.060;2024-03-02T17:13:21;8.90;99.90
12700;DHT22;6414;49.570;6.060;2024-03-02T17:16:07;8.90;99.90
12700;DHT22;6414;49.570;6.060;2024-03-02T17:18:53;8.90;99.90
12700;DHT22;6414;49.570;6.060;2024-03-02T17:21:40;8.80;99.90
12700;DHT22;6414;49.570;6.060;2024-03-02T17:24:26;8.80;99.90
12700;DHT22;6414;49.570;6.060;2024-03-02T17:27:12;8.80;99.90
12700;DHT22;6414;49.570;6.060;2024-03-02T17:29:58;8.70;99.90
12700;DHT22;6414;49.570;6.060;2024-03-02T17:32:45;8.70;99.90
12700;DHT22;6414;49.570;6.060;2024-03-02T17:35:31;8.70;99.90
12700;DHT22;6414;49.570;6.060;2024-03-02T17:38:17;8.70;99.90
12700;DHT22;6414;49.570;6.060;2024-03-02T17:41:02;8.70;99.90
12700;DHT22;6414;49.570;6.060;2024-03-02T17:43:48;8.70;99.90
12700;DHT22;6414;49.570;6.060;2024-03-02T17:46:34;8.70;99.90
12700;DHT22;6414;49.570;6.060;2024-03-02T17:49:20;8.70;99.90
12700;DHT22;6414;49.570;6.060;2024-03-02T17:52:06;8.80;99.90
12700;DHT22;6414;49.570;6.060;2024-03-02T17:54:52;8.80;99.90
12700;DHT22;6414;49.570;6.060;2024-03-02T17:57:37;8.80;99.90
12700;DHT22;6414;49.570;6.060;2024-03-02T18:00:23;8.80;99.90
12700;DHT22;6414;49.570;6.060;2024-03-02T18:03:09;8.80;99.90